createdAt,value
2023-11-27T00:00:37.811Z,19.10
2023-11-27T00:03:08.106Z,15.47
2023-11-27T00:05:35.563Z,15.83
2023-11-27T00:08:02.948Z,15.83
2023-11-27T00:10:30.103Z,15.23
2023-11-27T00:13:00.911Z,16.53
2023-11-27T00:15:28.697Z,14.40
2023-11-27T00:17:56.078Z,14.10
2023-11-27T00:20:23.667Z,12.70
2023-11-27T00:22:50.944Z,13.23
2023-11-27T00:25:18.166Z,15.50
2023-11-27T00:27:45.442Z,17.77
2023-11-27T00:30:13.162Z,17.20
2023-11-27T00:32:40.618Z,15.17
2023-11-27T00:35:07.926Z,17.27
2023-11-27T00:37:35.076Z,12.40
2023-11-27T00:40:02.317Z,15.77
2023-11-27T00:42:29.535Z,13.30
2023-11-27T00:44:56.699Z,16.97
2023-11-27T00:47:23.846Z,15.50
2023-11-27T00:49:51.008Z,13.60
2023-11-27T00:52:18.274Z,18.77
2023-11-27T00:54:45.460Z,14.23
2023-11-27T00:57:13.029Z,14.70
2023-11-27T00:59:42.030Z,13.13
2023-11-27T01:02:09.768Z,16.03
2023-11-27T01:04:39.814Z,11.60
2023-11-27T01:07:07.582Z,11.23
2023-11-27T01:09:36.910Z,15.27
2023-11-27T01:12:04.830Z,17.87
2023-11-27T01:14:32.255Z,15.50
2023-11-27T01:16:59.511Z,14.90
2023-11-27T01:19:26.964Z,12.97
2023-11-27T01:21:54.313Z,16.13
2023-11-27T01:24:21.818Z,16.07
2023-11-27T01:26:51.949Z,17.90
2023-11-27T01:29:22.674Z,13.80
2023-11-27T01:31:53.077Z,17.57
2023-11-27T01:34:20.254Z,16.77
2023-11-27T01:36:47.681Z,14.30
2023-11-27T01:39:15.421Z,15.17
2023-11-27T01:41:42.737Z,16.13
2023-11-27T01:44:09.918Z,17.50
2023-11-27T01:46:40.220Z,15.83
2023-11-27T01:49:07.423Z,19.23
2023-11-27T01:51:34.716Z,14.73
2023-11-27T01:54:01.994Z,19.83
2023-11-27T01:56:30.303Z,17.43
2023-11-27T01:58:58.874Z,16.80
2023-11-27T02:01:26.574Z,14.97
2023-11-27T02:03:54.007Z,19.00
2023-11-27T02:06:21.164Z,19.57
2023-11-27T02:08:48.455Z,18.27
2023-11-27T02:11:20.658Z,17.03
2023-11-27T02:13:48.031Z,16.27
2023-11-27T02:16:16.453Z,17.77
2023-11-27T02:18:43.787Z,15.73
2023-11-27T02:21:11.706Z,20.50
2023-11-27T02:23:39.034Z,18.20
2023-11-27T02:26:07.310Z,16.33
2023-11-27T02:28:34.486Z,16.67
2023-11-27T02:31:01.959Z,15.83
2023-11-27T02:33:29.358Z,17.00
2023-11-27T02:35:56.509Z,18.07
2023-11-27T02:38:23.656Z,16.20
2023-11-27T02:40:52.215Z,12.67
2023-11-27T02:43:19.658Z,16.17
2023-11-27T02:45:47.064Z,15.40
2023-11-27T02:48:14.436Z,15.23
2023-11-27T02:50:41.661Z,13.30
2023-11-27T02:53:08.970Z,19.07
2023-11-27T02:55:36.135Z,18.57
2023-11-27T02:58:03.306Z,16.60
2023-11-27T03:00:30.515Z,16.03
2023-11-27T03:02:57.736Z,12.57
2023-11-27T03:05:24.874Z,17.10
2023-11-27T03:07:52.088Z,18.23
2023-11-27T03:10:19.564Z,19.03
2023-11-27T03:12:46.759Z,15.73
2023-11-27T03:15:14.124Z,19.37
2023-11-27T03:17:42.715Z,14.77
2023-11-27T03:20:11.894Z,14.83
2023-11-27T03:22:39.035Z,14.67
2023-11-27T03:25:06.623Z,16.37
2023-11-27T03:27:33.926Z,13.93
2023-11-27T03:30:04.758Z,17.17
2023-11-27T03:32:33.215Z,18.30
2023-11-27T03:35:00.597Z,17.27
2023-11-27T03:37:27.980Z,15.83
2023-11-27T03:39:55.211Z,16.00
2023-11-27T03:42:22.692Z,17.77
2023-11-27T03:44:49.850Z,17.30
2023-11-27T03:47:16.985Z,16.40
2023-11-27T03:49:44.184Z,15.80
2023-11-27T03:52:11.379Z,14.23
2023-11-27T03:54:38.541Z,12.00
2023-11-27T03:57:05.986Z,14.40
2023-11-27T03:59:33.139Z,17.60
2023-11-27T04:02:00.895Z,14.17
2023-11-27T04:04:28.284Z,17.40
2023-11-27T04:06:56.112Z,13.63
2023-11-27T04:09:23.347Z,14.80
2023-11-27T04:11:50.883Z,17.00
2023-11-27T04:14:18.042Z,13.40
2023-11-27T04:16:45.295Z,13.97
2023-11-27T04:19:12.675Z,17.00
2023-11-27T04:21:39.943Z,26.43
2023-11-27T04:24:07.174Z,19.97
2023-11-27T04:26:34.315Z,19.07
2023-11-27T04:29:02.078Z,18.93
2023-11-27T04:31:29.759Z,14.97
2023-11-27T04:33:57.114Z,17.57
2023-11-27T04:36:24.467Z,14.97
2023-11-27T04:38:51.792Z,14.63
2023-11-27T04:41:20.750Z,18.00
2023-11-27T04:43:48.089Z,18.07
2023-11-27T04:46:15.391Z,17.70
2023-11-27T04:48:42.745Z,15.93
2023-11-27T04:51:11.160Z,18.20
2023-11-27T04:53:38.414Z,21.37
2023-11-27T04:56:05.761Z,20.50
2023-11-27T04:58:32.954Z,16.30
2023-11-27T05:01:00.494Z,17.30
2023-11-27T05:03:28.494Z,14.37
2023-11-27T05:05:59.446Z,13.90
2023-11-27T05:08:27.076Z,16.90
2023-11-27T05:10:55.269Z,15.33
2023-11-27T05:13:23.014Z,16.63
2023-11-27T05:15:50.298Z,17.30
2023-11-27T05:18:17.655Z,17.43
2023-11-27T05:20:44.825Z,20.10
2023-11-27T05:23:12.044Z,18.03
2023-11-27T05:25:39.178Z,14.67
2023-11-27T05:28:06.428Z,23.17
2023-11-27T05:30:33.689Z,20.80
2023-11-27T05:33:01.158Z,15.53
2023-11-27T05:35:28.628Z,17.97
2023-11-27T05:37:55.800Z,17.83
2023-11-27T05:40:23.675Z,18.13
2023-11-27T05:42:51.047Z,15.83
2023-11-27T05:45:18.789Z,19.43
2023-11-27T05:47:46.307Z,18.93
2023-11-27T05:50:13.985Z,18.97
2023-11-27T05:52:41.452Z,14.63
2023-11-27T05:55:08.950Z,18.57
2023-11-27T05:57:36.190Z,18.57
2023-11-27T06:00:04.490Z,19.10
2023-11-27T06:02:31.970Z,14.90
2023-11-27T06:04:59.219Z,20.47
2023-11-27T06:07:26.457Z,15.23
2023-11-27T06:09:53.675Z,18.50
2023-11-27T06:12:21.653Z,18.83
2023-11-27T06:14:48.822Z,18.30
2023-11-27T06:17:15.976Z,17.30
2023-11-27T06:19:43.174Z,15.37
2023-11-27T06:22:10.668Z,14.30
2023-11-27T06:24:37.816Z,19.67
2023-11-27T06:27:04.984Z,16.63
2023-11-27T06:29:32.420Z,13.80
2023-11-27T06:31:59.706Z,14.83
2023-11-27T06:34:26.907Z,20.73
2023-11-27T06:36:54.163Z,17.23
2023-11-27T06:39:22.034Z,15.07
2023-11-27T06:41:49.502Z,14.00
2023-11-27T06:44:19.397Z,13.13
2023-11-27T06:46:49.839Z,17.33
2023-11-27T06:49:17.262Z,16.10
2023-11-27T06:51:44.454Z,19.27
2023-11-27T06:54:11.605Z,11.97
2023-11-27T06:56:38.860Z,14.40
2023-11-27T06:59:06.235Z,13.53
2023-11-27T07:01:33.962Z,15.73
2023-11-27T07:04:01.996Z,17.20
2023-11-27T07:06:29.607Z,14.47
2023-11-27T07:08:56.805Z,15.57
2023-11-27T07:11:26.077Z,17.43
2023-11-27T07:13:53.556Z,12.87
2023-11-27T07:16:20.866Z,14.93
2023-11-27T07:18:48.443Z,13.10
2023-11-27T07:21:15.857Z,17.47
2023-11-27T07:23:45.754Z,15.60
2023-11-27T07:26:13.073Z,12.73
2023-11-27T07:28:43.960Z,14.20
2023-11-27T07:31:11.573Z,12.90
2023-11-27T07:33:41.547Z,15.50
2023-11-27T07:36:09.890Z,20.03
2023-11-27T07:38:37.068Z,10.70
2023-11-27T07:41:07.688Z,12.60
2023-11-27T07:43:35.795Z,10.80
2023-11-27T07:46:07.898Z,13.93
2023-11-27T07:48:35.378Z,16.20
2023-11-27T07:51:06.206Z,12.57
2023-11-27T07:53:33.397Z,17.53
2023-11-27T07:56:00.646Z,12.10
2023-11-27T07:58:27.899Z,17.83
2023-11-27T08:00:55.221Z,12.03
2023-11-27T08:03:23.015Z,14.60
2023-11-27T08:05:50.198Z,15.00
2023-11-27T08:08:18.136Z,13.77
2023-11-27T08:10:45.495Z,15.57
2023-11-27T08:13:15.479Z,14.47
2023-11-27T08:15:44.074Z,13.17
2023-11-27T08:18:12.860Z,16.63
2023-11-27T08:20:40.523Z,16.13
2023-11-27T08:23:07.725Z,15.93
2023-11-27T08:25:34.915Z,14.60
2023-11-27T08:28:03.808Z,14.07
2023-11-27T08:30:33.919Z,18.60
2023-11-27T08:33:02.322Z,15.53
2023-11-27T08:35:34.833Z,15.00
2023-11-27T08:38:02.543Z,13.70
2023-11-27T08:40:29.756Z,14.07
2023-11-27T08:42:57.042Z,12.00
2023-11-27T08:45:24.868Z,18.07
2023-11-27T08:47:52.959Z,14.87
2023-11-27T08:50:22.803Z,15.17
2023-11-27T08:52:50.032Z,13.53
2023-11-27T08:55:20.203Z,13.20
2023-11-27T08:57:48.076Z,12.07
2023-11-27T09:00:18.903Z,13.40
2023-11-27T09:02:49.660Z,15.07
2023-11-27T09:05:16.956Z,14.33
2023-11-27T09:07:44.933Z,12.93
2023-11-27T09:10:12.146Z,14.70
2023-11-27T09:12:39.916Z,13.20
2023-11-27T09:15:07.304Z,12.77
2023-11-27T09:17:34.513Z,11.70
2023-11-27T09:20:01.756Z,13.23
2023-11-27T09:22:28.889Z,14.03
2023-11-27T09:24:56.060Z,15.53
2023-11-27T09:27:23.658Z,12.80
2023-11-27T09:29:50.824Z,12.30
2023-11-27T09:32:18.078Z,12.00
2023-11-27T09:34:45.313Z,12.03
2023-11-27T09:37:12.459Z,17.13
2023-11-27T09:39:39.619Z,14.13
2023-11-27T09:42:06.830Z,14.83
2023-11-27T09:44:33.996Z,9.80
2023-11-27T09:47:03.230Z,14.53
2023-11-27T09:49:33.067Z,11.67
2023-11-27T09:52:04.545Z,11.60
2023-11-27T09:54:34.709Z,11.73
2023-11-27T09:57:03.309Z,11.17
2023-11-27T09:59:31.217Z,12.70
2023-11-27T10:02:00.191Z,13.87
2023-11-27T10:04:27.758Z,12.13
2023-11-27T10:06:55.080Z,12.17
2023-11-27T10:09:23.225Z,13.60
2023-11-27T10:11:52.541Z,14.03
2023-11-27T10:16:50.973Z,13.23
2023-11-27T10:19:20.901Z,11.87
2023-11-27T10:21:48.266Z,11.47
2023-11-27T10:24:17.418Z,11.63
2023-11-27T10:26:45.276Z,12.00
2023-11-27T10:29:12.635Z,11.37
2023-11-27T10:31:42.213Z,11.07
2023-11-27T10:34:09.669Z,10.40
2023-11-27T10:36:36.921Z,9.93
2023-11-27T10:39:10.190Z,14.03
2023-11-27T10:41:37.777Z,11.00
2023-11-27T10:44:05.374Z,8.73
2023-11-27T10:46:33.154Z,11.50
2023-11-27T10:49:01.245Z,10.77
2023-11-27T10:51:32.976Z,10.00
2023-11-27T10:54:01.754Z,9.83
2023-11-27T10:56:32.040Z,10.37
2023-11-27T10:59:06.833Z,8.77
2023-11-27T11:01:39.368Z,10.13
2023-11-27T11:04:17.534Z,9.47
2023-11-27T11:06:48.295Z,8.97
2023-11-27T11:09:17.076Z,11.93
2023-11-27T11:11:50.443Z,9.60
2023-11-27T11:14:20.484Z,9.00
2023-11-27T11:17:06.445Z,9.87
2023-11-27T11:19:37.248Z,21.00
2023-11-27T11:22:16.193Z,10.67
2023-11-27T11:24:52.019Z,9.80
2023-11-27T11:27:24.701Z,9.47
2023-11-27T11:29:54.593Z,9.97
2023-11-27T11:32:23.576Z,10.30
2023-11-27T11:34:51.836Z,11.60
2023-11-27T11:37:23.193Z,10.40
2023-11-27T11:39:55.379Z,9.80
2023-11-27T11:42:34.085Z,7.77
2023-11-27T11:45:19.111Z,7.67
2023-11-27T11:48:00.862Z,9.97
2023-11-27T11:50:32.727Z,11.37
2023-11-27T11:53:04.738Z,11.40
2023-11-27T11:55:35.536Z,9.13
2023-11-27T11:58:15.285Z,10.53
2023-11-27T12:04:13.001Z,9.30
2023-11-27T12:06:46.279Z,11.17
2023-11-27T12:09:14.643Z,11.17
2023-11-27T12:11:41.784Z,9.00
2023-11-27T12:14:17.596Z,9.37
2023-11-27T12:16:47.492Z,11.67
2023-11-27T12:19:20.181Z,9.40
2023-11-27T12:21:48.425Z,8.57
2023-11-27T12:24:15.604Z,10.77
2023-11-27T12:26:42.719Z,9.50
2023-11-27T12:29:09.835Z,8.73
2023-11-27T12:31:37.314Z,11.90
2023-11-27T12:34:05.293Z,9.23
2023-11-27T12:36:32.665Z,11.97
2023-11-27T12:39:00.002Z,9.30
2023-11-27T12:41:35.816Z,11.67
2023-11-27T12:44:19.865Z,12.70
2023-11-27T12:46:51.698Z,9.43
2023-11-27T12:49:26.333Z,11.73
2023-11-27T12:51:56.369Z,11.03
2023-11-27T12:54:24.404Z,10.60
2023-11-27T12:57:01.609Z,15.03
2023-11-27T12:59:28.994Z,14.47
2023-11-27T13:01:59.799Z,10.90
2023-11-27T13:04:31.879Z,11.23
2023-11-27T13:07:00.224Z,10.90
2023-11-27T13:09:27.584Z,9.10
2023-11-27T13:11:54.976Z,8.57
2023-11-27T13:14:23.445Z,11.67
2023-11-27T13:16:52.849Z,15.63
2023-11-27T13:19:20.692Z,11.57
2023-11-27T13:21:54.894Z,12.87
2023-11-27T13:24:27.725Z,10.73
2023-11-27T13:26:56.087Z,12.47
2023-11-27T13:29:26.809Z,13.37
2023-11-27T13:31:54.031Z,12.90
2023-11-27T13:34:33.821Z,10.27
2023-11-27T13:37:08.699Z,11.47
2023-11-27T13:39:39.148Z,15.53
2023-11-27T13:42:09.784Z,15.30
2023-11-27T13:44:40.086Z,13.67
2023-11-27T13:47:07.624Z,11.60
2023-11-27T13:49:35.587Z,11.13
2023-11-27T13:54:33.761Z,11.00
2023-11-27T13:57:00.989Z,13.80
2023-11-27T13:59:36.188Z,11.43
2023-11-27T14:02:13.454Z,12.40
2023-11-27T14:04:55.699Z,17.47
2023-11-27T14:07:25.765Z,19.07
2023-11-27T14:09:56.707Z,29.77
2023-11-27T14:12:39.683Z,16.63
2023-11-27T14:15:09.717Z,43.10
2023-11-27T14:17:39.189Z,31.33
2023-11-27T14:20:25.553Z,46.57
2023-11-27T14:23:05.825Z,16.67
2023-11-27T14:25:48.735Z,13.10
2023-11-27T14:28:21.400Z,11.97
2023-11-27T14:30:49.103Z,15.40
2023-11-27T14:33:17.253Z,17.33
2023-11-27T14:35:47.959Z,13.23
2023-11-27T14:38:16.638Z,15.40
2023-11-27T14:40:43.793Z,16.97
2023-11-27T14:43:13.432Z,15.90
2023-11-27T14:45:46.571Z,14.27
2023-11-27T14:48:14.546Z,19.23
2023-11-27T14:50:42.569Z,12.70
2023-11-27T14:53:10.938Z,79.03
2023-11-27T14:55:40.120Z,24.57
2023-11-27T14:58:07.790Z,18.60
2023-11-27T15:00:37.147Z,21.33
2023-11-27T15:03:05.187Z,16.07
2023-11-27T15:05:32.487Z,18.63
2023-11-27T15:07:59.879Z,18.70
2023-11-27T15:10:28.319Z,20.10
2023-11-27T15:12:56.758Z,18.70
2023-11-27T15:15:27.513Z,25.33
2023-11-27T15:17:54.957Z,24.93
2023-11-27T15:20:27.997Z,28.60
2023-11-27T15:22:57.442Z,30.80
2023-11-27T15:25:24.769Z,27.93
2023-11-27T15:27:52.356Z,33.27
2023-11-27T15:30:19.621Z,30.27
2023-11-27T15:32:47.470Z,34.80
2023-11-27T15:35:18.829Z,32.17
2023-11-27T15:37:46.838Z,29.67
2023-11-27T15:40:21.249Z,29.87
2023-11-27T15:42:48.716Z,29.57
2023-11-27T15:45:18.665Z,30.40
2023-11-27T15:47:46.097Z,28.30
2023-11-27T15:50:15.062Z,23.00
2023-11-27T15:52:46.941Z,24.73
2023-11-27T15:55:15.004Z,31.17
2023-11-27T15:57:44.947Z,27.80
2023-11-27T16:00:15.816Z,28.40
2023-11-27T16:02:43.163Z,27.90
2023-11-27T16:05:10.521Z,33.93
2023-11-27T16:07:41.312Z,40.50
2023-11-27T16:10:14.776Z,33.43
2023-11-27T16:12:42.565Z,33.03
2023-11-27T16:15:13.754Z,32.67
2023-11-27T16:17:52.783Z,32.37
2023-11-27T16:20:26.487Z,43.03
2023-11-27T16:22:53.798Z,36.73
2023-11-27T16:25:21.732Z,33.17
2023-11-27T16:27:48.994Z,31.63
2023-11-27T16:30:22.684Z,43.20
2023-11-27T16:32:50.858Z,32.00
2023-11-27T16:35:24.641Z,30.67
2023-11-27T16:37:52.554Z,30.43
2023-11-27T16:40:21.387Z,29.73
2023-11-27T16:42:52.805Z,27.50
2023-11-27T16:45:23.335Z,29.50
2023-11-27T16:47:54.134Z,31.00
2023-11-27T16:50:25.815Z,31.60
2023-11-27T16:52:54.134Z,31.93
2023-11-27T16:55:21.494Z,31.17
2023-11-27T16:57:50.591Z,40.00
2023-11-27T17:00:25.035Z,32.27
2023-11-27T17:02:53.477Z,35.87
2023-11-27T17:05:22.804Z,28.87
2023-11-27T17:07:53.428Z,32.40
2023-11-27T17:10:22.610Z,34.23
2023-11-27T17:12:50.528Z,30.53
2023-11-27T17:15:17.895Z,29.17
2023-11-27T17:17:45.702Z,35.00
2023-11-27T17:20:13.592Z,31.97
2023-11-27T17:22:55.762Z,39.17
2023-11-27T17:25:31.800Z,41.77
2023-11-27T17:28:00.000Z,38.80
2023-11-27T17:30:27.281Z,40.53
2023-11-27T17:32:54.693Z,33.33
2023-11-27T17:35:21.918Z,43.33
2023-11-27T17:37:50.694Z,36.80
2023-11-27T17:40:19.127Z,40.47
2023-11-27T17:42:47.903Z,39.30
2023-11-27T17:45:15.856Z,33.63
2023-11-27T17:47:43.580Z,42.40
2023-11-27T17:50:14.488Z,118.27
2023-11-27T17:52:45.223Z,62.13
2023-11-27T17:55:14.826Z,79.20
2023-11-27T17:57:44.102Z,60.57
2023-11-27T18:00:18.028Z,55.50
2023-11-27T18:02:48.790Z,53.00
2023-11-27T18:05:18.339Z,51.50
2023-11-27T18:07:45.511Z,44.67
2023-11-27T18:10:12.917Z,42.43
2023-11-27T18:12:43.480Z,51.37
2023-11-27T18:15:16.603Z,46.37
2023-11-27T18:17:45.167Z,41.13
2023-11-27T18:20:13.777Z,57.20
2023-11-27T18:22:41.762Z,44.90
2023-11-27T18:25:11.177Z,39.27
2023-11-27T18:27:38.612Z,42.90
2023-11-27T18:30:06.505Z,48.70
2023-11-27T18:32:33.722Z,46.90
2023-11-27T18:35:01.964Z,44.87
2023-11-27T18:37:32.352Z,47.40
2023-11-27T18:39:59.541Z,49.30
2023-11-27T18:42:39.101Z,46.43
2023-11-27T18:45:09.804Z,45.67
2023-11-27T18:47:41.455Z,53.07
2023-11-27T18:50:09.121Z,46.57
2023-11-27T18:52:37.254Z,58.17
2023-11-27T18:55:04.664Z,38.97
2023-11-27T18:57:32.329Z,65.50
2023-11-27T19:00:00.408Z,59.67
2023-11-27T19:02:28.203Z,56.97
2023-11-27T19:04:55.520Z,66.23
2023-11-27T19:07:22.750Z,50.47
2023-11-27T19:09:49.939Z,72.50
2023-11-27T19:12:17.095Z,70.53
2023-11-27T19:14:45.290Z,90.83
2023-11-27T19:17:13.391Z,61.20
2023-11-27T19:19:40.654Z,106.10
2023-11-27T19:22:08.106Z,81.63
2023-11-27T19:24:35.327Z,109.27
2023-11-27T19:27:04.791Z,141.13
2023-11-27T19:29:32.135Z,80.47
2023-11-27T19:31:59.464Z,61.50
2023-11-27T19:34:27.886Z,79.20
2023-11-27T19:36:57.203Z,72.80
2023-11-27T19:39:25.345Z,114.83
2023-11-27T19:41:53.388Z,64.20
2023-11-27T19:44:21.600Z,85.73
2023-11-27T19:46:51.922Z,57.30
2023-11-27T19:49:21.028Z,74.60
2023-11-27T19:51:48.483Z,57.87
2023-11-27T19:54:19.668Z,76.20
2023-11-27T19:56:47.612Z,59.27
2023-11-27T19:59:14.839Z,76.87
2023-11-27T20:01:42.171Z,89.67
2023-11-27T20:04:09.492Z,71.17
2023-11-27T20:06:40.773Z,74.47
2023-11-27T20:09:12.789Z,67.60
2023-11-27T20:11:40.605Z,67.10
2023-11-27T20:14:08.236Z,61.90
2023-11-27T20:16:35.905Z,67.17
2023-11-27T20:19:06.609Z,60.20
2023-11-27T20:21:34.220Z,68.83
2023-11-27T20:24:01.651Z,55.63
2023-11-27T20:26:29.707Z,65.53
2023-11-27T20:29:01.912Z,61.43
2023-11-27T20:31:36.470Z,57.00
2023-11-27T20:34:05.781Z,58.93
2023-11-27T20:36:38.947Z,49.30
2023-11-27T20:39:12.049Z,54.10
2023-11-27T20:41:42.332Z,46.13
2023-11-27T20:44:10.240Z,43.00
2023-11-27T20:46:37.897Z,30.60
2023-11-27T20:49:06.088Z,37.23
2023-11-27T20:51:33.635Z,53.00
2023-11-27T20:54:01.047Z,42.70
2023-11-27T20:56:28.198Z,46.73
2023-11-27T20:58:55.464Z,37.93
2023-11-27T21:01:28.315Z,31.23
2023-11-27T21:03:56.189Z,28.30
2023-11-27T21:06:25.997Z,30.53
2023-11-27T21:08:53.957Z,31.53
2023-11-27T21:11:24.038Z,34.90
2023-11-27T21:13:52.366Z,37.17
2023-11-27T21:16:21.311Z,19.00
2023-11-27T21:18:48.802Z,24.63
2023-11-27T21:21:16.032Z,19.00
2023-11-27T21:23:44.009Z,26.63
2023-11-27T21:26:13.164Z,35.50
2023-11-27T21:28:42.620Z,37.13
2023-11-27T21:31:10.387Z,38.57
2023-11-27T21:33:37.764Z,36.33
2023-11-27T21:36:05.040Z,38.87
2023-11-27T21:38:32.186Z,33.37
2023-11-27T21:40:59.430Z,42.30
2023-11-27T21:43:26.723Z,30.37
2023-11-27T21:48:21.332Z,35.97
2023-11-27T21:50:48.491Z,36.17
2023-11-27T21:53:16.362Z,38.43
2023-11-27T21:55:43.862Z,33.07
2023-11-27T21:58:11.117Z,28.67
2023-11-27T22:00:38.287Z,31.40
2023-11-27T22:03:05.524Z,30.27
2023-11-27T22:05:33.262Z,23.47
2023-11-27T22:08:00.537Z,20.90
2023-11-27T22:10:28.584Z,28.80
2023-11-27T22:12:55.909Z,22.97
2023-11-27T22:15:23.046Z,35.23
2023-11-27T22:17:50.282Z,27.80
2023-11-27T22:20:17.424Z,33.10
2023-11-27T22:22:44.730Z,29.70
2023-11-27T22:25:12.099Z,32.77
2023-11-27T22:27:39.555Z,36.70
2023-11-27T22:30:08.162Z,36.27
2023-11-27T22:32:35.512Z,27.90
2023-11-27T22:35:02.795Z,32.00
2023-11-27T22:37:29.969Z,33.90
2023-11-27T22:39:57.206Z,25.50
2023-11-27T22:42:24.323Z,26.43
2023-11-27T22:44:51.554Z,36.67
2023-11-27T22:47:18.714Z,33.37
2023-11-27T22:49:46.049Z,35.53
2023-11-27T22:52:13.888Z,29.23
2023-11-27T22:54:42.908Z,35.53
2023-11-27T22:57:10.876Z,37.30
2023-11-27T22:59:41.273Z,35.03
2023-11-27T23:02:09.431Z,28.00
2023-11-27T23:04:36.757Z,25.97
2023-11-27T23:07:05.180Z,26.67
2023-11-27T23:09:32.967Z,27.17
2023-11-27T23:12:00.124Z,15.53
2023-11-27T23:14:27.349Z,25.30
2023-11-27T23:16:54.652Z,22.10
2023-11-27T23:19:21.932Z,30.13
2023-11-27T23:21:49.206Z,29.10
2023-11-27T23:24:20.985Z,20.17
2023-11-27T23:26:53.823Z,16.87
2023-11-27T23:29:22.782Z,15.63
2023-11-27T23:31:53.275Z,29.33
2023-11-27T23:34:23.034Z,25.70
2023-11-27T23:36:50.310Z,32.90
2023-11-27T23:39:17.853Z,28.33
2023-11-27T23:41:45.086Z,31.67
2023-11-27T23:44:12.215Z,33.97
2023-11-27T23:46:39.483Z,28.23
2023-11-27T23:49:06.641Z,26.83
2023-11-27T23:51:33.888Z,22.87
2023-11-27T23:54:01.047Z,31.17
2023-11-27T23:56:28.225Z,19.97
2023-11-27T23:58:55.410Z,18.77
